Time;durP1;ratioP1;P1;durP2;ratioP2;P2;SDS_P1;SDS_P2;PMS_P1;PMS_P2;Temp;Humidity;BMP_temperature;BMP_pressure;BME280_temperature;BME280_humidity;BME280_pressure;Samples;Min_cycle;Max_cycle;Signal;HPM_P1;HPM_P2
2023/02/10 00:01:17;;;;;;;74.30;66.67;;;3.00;99.90;;;;;;5081286;28;20471;-84
2023/02/10 00:03:45;;;;;;;64.90;46.90;;;3.10;99.90;;;;;;5081007;28;20483;-84
2023/02/10 00:06:13;;;;;;;66.87;44.03;;;3.10;99.90;;;;;;5081359;28;20454;-84
2023/02/10 00:08:40;;;;;;;65.27;51.97;;;3.10;99.90;;;;;;5080665;28;20621;-84
2023/02/10 00:11:11;;;;;;;69.77;53.03;;;3.20;99.90;;;;;;5081274;28;20451;-84
2023/02/10 00:13:39;;;;;;;62.20;47.63;;;3.20;99.90;;;;;;5081317;28;20454;-85
2023/02/10 00:16:08;;;;;;;64.50;53.07;;;3.20;99.90;;;;;;5080891;28;20454;-84
2023/02/10 00:18:35;;;;;;;62.60;56.00;;;3.30;99.90;;;;;;5080532;28;20482;-85
2023/02/10 00:21:07;;;;;;;70.73;52.20;;;3.30;99.90;;;;;;5080990;28;20505;-84
2023/02/10 00:23:34;;;;;;;67.80;50.37;;;3.20;99.90;;;;;;5080373;28;21106;-84
2023/02/10 00:26:04;;;;;;;61.90;47.87;;;3.10;99.90;;;;;;5080846;28;20985;-84
2023/02/10 00:28:34;;;;;;;59.17;50.23;;;3.10;99.90;;;;;;5080693;28;20463;-84
2023/02/10 00:31:05;;;;;;;79.73;53.07;;;3.10;99.90;;;;;;5080643;28;20451;-84
2023/02/10 00:33:32;;;;;;;64.43;50.43;;;3.20;99.90;;;;;;5080855;28;20446;-84
2023/02/10 00:35:59;;;;;;;77.27;56.67;;;3.10;99.90;;;;;;5080446;28;20962;-84
2023/02/10 00:38:26;;;;;;;74.80;66.63;;;3.10;99.90;;;;;;5080503;28;20479;-84
2023/02/10 00:40:53;;;;;;;65.37;58.47;;;3.00;99.90;;;;;;5079775;28;20483;-84
2023/02/10 00:43:20;;;;;;;73.37;53.87;;;3.10;99.90;;;;;;5080265;28;20451;-83
2023/02/10 00:45:48;;;;;;;84.40;76.57;;;3.20;99.90;;;;;;5080382;28;20549;-84
2023/02/10 00:48:15;;;;;;;84.03;76.13;;;3.10;99.90;;;;;;5080208;28;20470;-85
2023/02/10 00:50:42;;;;;;;83.67;75.83;;;3.10;99.90;;;;;;5079575;28;20545;-85
2023/02/10 00:53:09;;;;;;;130.93;121.63;;;2.90;99.90;;;;;;5079996;28;20553;-84
2023/02/10 00:55:36;;;;;;;126.83;116.00;;;3.00;99.90;;;;;;5080029;28;20515;-85
2023/02/10 00:58:05;;;;;;;123.30;114.20;;;3.00;99.90;;;;;;5080290;28;20494;-84
2023/02/10 01:00:32;;;;;;;133.47;124.40;;;3.10;99.90;;;;;;5080113;28;20480;-84
2023/02/10 01:03:00;;;;;;;157.27;146.07;;;3.00;99.90;;;;;;5079797;28;20461;-83
2023/02/10 01:05:27;;;;;;;226.63;213.50;;;3.10;99.90;;;;;;5079581;28;20534;-84
2023/02/10 01:07:55;;;;;;;244.97;231.33;;;3.10;99.90;;;;;;5079902;28;20550;-84
2023/02/10 01:10:22;;;;;;;254.47;239.77;;;3.20;99.90;;;;;;5080248;28;20857;-85
2023/02/10 01:12:49;;;;;;;299.10;283.90;;;3.20;99.90;;;;;;5079795;28;20465;-84
2023/02/10 01:15:21;;;;;;;289.63;275.13;;;3.30;99.90;;;;;;5079697;28;20900;-84
2023/02/10 01:17:48;;;;;;;206.13;192.80;;;3.30;99.90;;;;;;5080101;28;20433;-84
2023/02/10 01:20:16;;;;;;;178.60;167.40;;;3.40;99.90;;;;;;5079629;28;20471;-84
2023/02/10 01:22:43;;;;;;;231.03;218.43;;;3.40;99.90;;;;;;5079922;28;20886;-84
2023/02/10 01:25:10;;;;;;;198.07;186.20;;;3.40;99.90;;;;;;5079257;28;20442;-84
2023/02/10 01:27:37;;;;;;;197.87;186.10;;;3.60;99.90;;;;;;5079288;28;20455;-84
2023/02/10 01:30:04;;;;;;;146.93;136.63;;;3.40;99.90;;;;;;5079264;28;20474;-84
2023/02/10 01:32:31;;;;;;;165.37;153.27;;;3.40;99.90;;;;;;5079279;28;20470;-84
2023/02/10 01:34:58;;;;;;;131.73;121.90;;;3.50;99.90;;;;;;5079353;28;20543;-84
2023/02/10 01:37:27;;;;;;;112.87;102.40;;;3.40;99.90;;;;;;5079208;28;20450;-85
2023/02/10 01:39:54;;;;;;;118.50;108.90;;;3.50;99.90;;;;;;5078971;28;20521;-84
2023/02/10 01:42:21;;;;;;;112.77;104.03;;;3.50;99.90;;;;;;5079128;28;20918;-84
2023/02/10 01:45:15;;;;;;;97.97;88.50;;;3.50;99.90;;;;;;5078812;28;20545;-84
2023/02/10 01:47:44;;;;;;;114.70;106.43;;;3.50;99.90;;;;;;5078778;28;20945;-83
2023/02/10 01:50:12;;;;;;;81.00;71.87;;;3.60;99.90;;;;;;5079241;28;20454;-84
2023/02/10 01:52:41;;;;;;;72.77;61.77;;;3.70;99.90;;;;;;5079535;28;20450;-83
2023/02/10 01:55:11;;;;;;;81.83;67.33;;;3.70;99.90;;;;;;5078986;28;20443;-84
2023/02/10 01:57:40;;;;;;;71.30;63.93;;;3.70;99.90;;;;;;5079429;28;20481;-84
2023/02/10 02:00:09;;;;;;;70.13;60.67;;;3.70;99.90;;;;;;5079179;28;20474;-84
2023/02/10 02:02:36;;;;;;;101.40;92.47;;;3.70;99.90;;;;;;5079102;28;20442;-84
2023/02/10 02:05:21;;;;;;;95.73;86.73;;;3.70;99.90;;;;;;5078939;28;20790;-84
2023/02/10 02:07:49;;;;;;;86.40;77.87;;;3.80;99.90;;;;;;5078783;28;20450;-84
2023/02/10 02:10:16;;;;;;;98.93;88.77;;;3.70;99.90;;;;;;5078893;28;20557;-84
2023/02/10 02:12:54;;;;;;;96.57;83.83;;;3.70;99.90;;;;;;5078536;28;20489;-84
2023/02/10 02:15:29;;;;;;;91.57;82.83;;;3.60;99.90;;;;;;5078644;28;20446;-85
2023/02/10 02:18:04;;;;;;;84.83;76.13;;;3.70;99.90;;;;;;5079453;28;20909;-84
2023/02/10 02:21:03;;;;;;;83.47;74.63;;;3.70;99.90;;;;;;5079120;28;20506;-84
2023/02/10 02:24:10;;;;;;;70.43;61.33;;;3.70;99.90;;;;;;5076385;28;20513;-84
2023/02/10 02:27:12;;;;;;;67.00;47.33;;;3.60;99.90;;;;;;5037102;28;20530;-83
2023/02/10 02:30:09;;;;;;;78.97;51.27;;;3.60;99.90;;;;;;5030074;28;20550;-84
2023/02/10 02:32:40;;;;;;;74.07;61.23;;;3.60;99.90;;;;;;5071646;28;20459;-84
2023/02/10 02:35:10;;;;;;;76.60;68.33;;;3.60;99.90;;;;;;5078740;28;20485;-84
2023/02/10 02:37:39;;;;;;;85.63;77.13;;;3.60;99.90;;;;;;5078761;28;20447;-84
2023/02/10 02:40:07;;;;;;;70.33;56.83;;;3.50;99.90;;;;;;5078411;28;20459;-84
2023/02/10 02:42:34;;;;;;;76.63;68.57;;;3.50;99.90;;;;;;5078736;28;20874;-84
2023/02/10 02:45:05;;;;;;;82.80;61.47;;;3.60;99.90;;;;;;5079216;28;20447;-84
2023/02/10 02:47:57;;;;;;;74.20;66.47;;;3.60;99.90;;;;;;5078726;28;20465;-84
2023/02/10 02:50:32;;;;;;;67.33;59.53;;;3.60;99.90;;;;;;5078582;28;20475;-85
2023/02/10 02:53:10;;;;;;;68.27;56.83;;;3.50;99.90;;;;;;5078196;28;20480;-84
2023/02/10 02:55:47;;;;;;;75.70;60.97;;;3.60;99.90;;;;;;5078864;28;20446;-84
2023/02/10 02:58:18;;;;;;;81.33;73.23;;;3.60;99.90;;;;;;5078882;28;20469;-84
2023/02/10 03:00:48;;;;;;;87.90;79.83;;;3.50;99.90;;;;;;5082977;28;20504;-85
2023/02/10 03:03:18;;;;;;;102.87;93.73;;;3.50;99.90;;;;;;5082977;28;20478;-83
2023/02/10 03:05:45;;;;;;;104.23;94.97;;;3.40;99.90;;;;;;5082636;28;20454;-85
2023/02/10 03:08:11;;;;;;;113.67;105.03;;;3.40;99.90;;;;;;5082476;28;20462;-85
2023/02/10 03:10:38;;;;;;;119.13;108.93;;;3.20;99.90;;;;;;5082307;28;20529;-84
2023/02/10 03:13:05;;;;;;;148.67;137.50;;;3.20;99.90;;;;;;5082540;28;20442;-84
2023/02/10 03:15:32;;;;;;;145.93;135.50;;;3.00;99.90;;;;;;5082454;28;20829;-84
2023/02/10 03:17:59;;;;;;;177.87;166.20;;;3.00;99.90;;;;;;5082294;28;20470;-85
2023/02/10 03:20:28;;;;;;;219.63;207.57;;;2.80;99.90;;;;;;5082033;28;20446;-84
2023/02/10 03:22:55;;;;;;;259.67;244.77;;;2.70;99.90;;;;;;5082228;28;20450;-84
2023/02/10 03:25:21;;;;;;;324.20;307.50;;;2.70;99.90;;;;;;5082406;28;20522;-86
2023/02/10 03:27:48;;;;;;;403.47;383.57;;;2.60;99.90;;;;;;5082483;28;20537;-84
2023/02/10 03:30:15;;;;;;;443.93;424.30;;;2.50;99.90;;;;;;5081775;28;20474;-83
2023/02/10 03:32:42;;;;;;;525.80;499.03;;;2.30;99.90;;;;;;5082223;28;20557;-84
2023/02/10 03:35:09;;;;;;;549.50;521.53;;;2.20;99.90;;;;;;5081691;28;20525;-84
2023/02/10 03:37:37;;;;;;;592.20;561.10;;;2.20;99.90;;;;;;5082163;28;20529;-84
2023/02/10 03:40:04;;;;;;;600.20;569.00;;;2.00;99.90;;;;;;5082366;28;21039;-85
2023/02/10 03:42:31;;;;;;;620.50;590.37;;;1.90;99.90;;;;;;5081590;28;20557;-84
2023/02/10 03:44:58;;;;;;;565.80;538.30;;;1.90;99.90;;;;;;5081352;28;21018;-85
2023/02/10 03:47:25;;;;;;;542.70;516.63;;;2.00;99.90;;;;;;5081351;28;20486;-84
2023/02/10 03:49:52;;;;;;;529.47;502.37;;;1.80;99.90;;;;;;5081164;28;20964;-84
2023/02/10 03:52:19;;;;;;;521.10;497.03;;;1.90;99.90;;;;;;5081742;28;20496;-84
2023/02/10 03:54:47;;;;;;;548.90;522.10;;;1.80;99.90;;;;;;5081362;28;20522;-84
2023/02/10 03:57:14;;;;;;;643.07;608.57;;;1.70;99.90;;;;;;5081356;28;20489;-84
2023/02/10 03:59:41;;;;;;;678.53;644.77;;;1.60;99.90;;;;;;5081560;28;20528;-84
2023/02/10 04:02:08;;;;;;;717.30;678.83;;;1.40;99.90;;;;;;5081288;28;20585;-84
2023/02/10 04:04:35;;;;;;;730.37;691.67;;;1.40;99.90;;;;;;5081298;28;20459;-84
2023/02/10 04:07:02;;;;;;;731.60;692.07;;;1.20;99.90;;;;;;5081449;28;20554;-84
2023/02/10 04:09:29;;;;;;;750.30;707.43;;;0.90;99.90;;;;;;5080662;28;20550;-84
2023/02/10 04:11:57;;;;;;;777.67;733.20;;;0.90;99.90;;;;;;5081411;28;20537;-85
2023/02/10 04:14:24;;;;;;;819.53;770.47;;;0.80;99.90;;;;;;5081345;28;20521;-84
2023/02/10 04:16:51;;;;;;;836.57;783.57;;;0.80;99.90;;;;;;5081388;28;20446;-84
2023/02/10 04:19:18;;;;;;;835.67;780.77;;;0.60;99.90;;;;;;5081072;28;20462;-84
2023/02/10 04:21:45;;;;;;;828.23;776.27;;;0.50;99.90;;;;;;5081251;28;20474;-84
2023/02/10 04:24:12;;;;;;;845.73;790.43;;;0.40;99.90;;;;;;5081172;28;20485;-84
2023/02/10 04:26:39;;;;;;;854.00;797.30;;;0.20;99.90;;;;;;5080868;28;20521;-84
2023/02/10 04:29:07;;;;;;;858.60;800.38;;;0.10;99.90;;;;;;5080421;28;20470;-86
2023/02/10 04:31:37;;;;;;;870.53;808.20;;;0.00;99.90;;;;;;5081029;28;20279;-84
2023/02/10 04:34:03;;;;;;;878.90;816.30;;;0.00;99.90;;;;;;5080872;28;20482;-84
2023/02/10 04:36:30;;;;;;;873.22;810.47;;;-0.10;99.90;;;;;;5081000;28;20471;-84
2023/02/10 04:38:57;;;;;;;874.33;807.90;;;-0.10;99.90;;;;;;5080373;28;20268;-84
2023/02/10 04:41:24;;;;;;;873.20;808.40;;;-0.20;99.90;;;;;;5080313;28;20470;-84
2023/02/10 04:43:51;;;;;;;859.17;792.13;;;0.00;99.90;;;;;;5080603;28;20455;-84
2023/02/10 04:46:19;;;;;;;866.73;799.20;;;0.00;99.90;;;;;;5080241;28;20457;-84
2023/02/10 04:48:46;;;;;;;867.17;798.93;;;0.00;99.90;;;;;;5079330;28;20510;-84
2023/02/10 04:51:13;;;;;;;862.50;792.10;;;0.10;99.90;;;;;;5079691;28;20505;-84
2023/02/10 04:53:43;;;;;;;862.70;790.40;;;0.10;99.90;;;;;;5079412;28;20454;-84
2023/02/10 04:56:13;;;;;;;846.47;774.93;;;0.20;99.90;;;;;;5085305;28;20538;-84
2023/02/10 04:58:40;;;;;;;848.00;775.53;;;0.10;99.90;;;;;;5081354;28;20565;-83
2023/02/10 05:01:07;;;;;;;848.17;775.70;;;0.20;99.90;;;;;;5081427;28;20447;-84
2023/02/10 05:03:35;;;;;;;847.17;773.55;;;0.10;99.90;;;;;;5080190;28;20538;-84
2023/02/10 05:06:08;;;;;;;831.85;758.88;;;0.20;99.90;;;;;;5082497;28;20196;-84
2023/02/10 05:08:40;;;;;;;846.40;774.90;;;0.10;99.90;;;;;;5082121;28;20235;-84
2023/02/10 05:11:07;;;;;;;845.70;772.40;;;0.10;99.90;;;;;;5082449;28;20508;-84
2023/02/10 05:13:34;;;;;;;845.30;772.00;;;0.00;99.90;;;;;;5080525;28;20534;-83
2023/02/10 05:16:02;;;;;;;852.20;779.30;;;0.00;99.90;;;;;;5082508;28;20446;-84
2023/02/10 05:18:29;;;;;;;864.57;792.40;;;0.00;99.90;;;;;;5083076;28;20918;-84
2023/02/10 05:20:58;;;;;;;853.33;779.70;;;-0.10;99.90;;;;;;5079472;28;20443;-84
2023/02/10 05:23:25;;;;;;;838.63;763.17;;;0.00;99.90;;;;;;5084562;28;21006;-83
2023/02/10 05:25:52;;;;;;;846.17;772.00;;;0.20;99.90;;;;;;5080877;28;20550;-83
2023/02/10 05:28:19;;;;;;;845.10;771.00;;;0.20;99.90;;;;;;5080940;28;20519;-84
2023/02/10 05:30:47;;;;;;;829.37;756.47;;;0.30;99.90;;;;;;5080083;28;20534;-85
2023/02/10 05:33:14;;;;;;;831.90;757.90;;;0.50;99.90;;;;;;5083048;28;20474;-84
2023/02/10 05:35:41;;;;;;;833.97;757.13;;;0.50;99.90;;;;;;5081253;28;20518;-84
2023/02/10 05:38:09;;;;;;;828.90;753.70;;;0.40;99.90;;;;;;5082539;28;20473;-84
2023/02/10 05:40:36;;;;;;;830.10;754.50;;;0.40;99.90;;;;;;5080342;28;20463;-84
2023/02/10 05:43:03;;;;;;;838.77;763.90;;;0.40;99.90;;;;;;5080168;28;20478;-84
2023/02/10 05:45:30;;;;;;;830.27;756.53;;;0.20;99.90;;;;;;5080176;28;20454;-84
2023/02/10 05:47:58;;;;;;;838.22;764.30;;;0.10;99.90;;;;;;5080814;28;20541;-84
2023/02/10 05:50:25;;;;;;;848.55;772.55;;;0.10;99.90;;;;;;5083692;28;20200;-84
2023/02/10 05:52:52;;;;;;;834.20;759.20;;;0.00;99.90;;;;;;5085152;28;20193;-83
2023/02/10 05:55:28;;;;;;;835.25;759.75;;;-0.10;99.90;;;;;;5083545;28;20455;-84
2023/02/10 05:57:58;;;;;;;848.00;772.90;;;-0.20;99.90;;;;;;5087139;28;20225;-84
2023/02/10 06:00:29;;;;;;;850.60;776.67;;;-0.40;99.90;;;;;;5087341;28;20462;-85
2023/02/10 06:02:56;;;;;;;850.13;775.73;;;-0.50;99.90;;;;;;5081781;28;20515;-85
2023/02/10 06:05:23;;;;;;;857.05;782.30;;;-0.50;99.90;;;;;;5084090;28;20458;-83
2023/02/10 06:07:50;;;;;;;851.23;777.33;;;-0.50;99.90;;;;;;5080369;28;20282;-83
2023/02/10 06:10:17;;;;;;;853.70;778.57;;;-0.60;99.90;;;;;;5080594;28;20486;-83
2023/02/10 06:12:45;;;;;;;864.28;787.67;;;-0.60;99.90;;;;;;5080813;28;20527;-81
2023/02/10 06:15:12;;;;;;;856.40;780.40;;;-0.60;99.90;;;;;;5081091;28;20212;-83
2023/02/10 06:17:39;;;;;;;836.27;760.60;;;-0.60;99.90;;;;;;5081285;28;20306;-83
2023/02/10 06:20:07;;;;;;;846.90;769.20;;;-0.50;99.90;;;;;;5080738;28;20451;-85
2023/02/10 06:22:34;;;;;;;847.83;770.00;;;-0.50;99.90;;;;;;5079955;28;20473;-84
2023/02/10 06:25:00;;;;;;;846.63;768.33;;;-0.50;99.90;;;;;;5080434;28;20482;-84
2023/02/10 06:27:27;;;;;;;855.30;775.50;;;-0.50;99.90;;;;;;5080702;28;20263;-83
2023/02/10 06:29:56;;;;;;;844.37;766.80;;;-0.60;99.90;;;;;;5080188;28;20228;-82
2023/02/10 06:32:24;;;;;;;848.05;769.03;;;-0.60;99.90;;;;;;5081271;28;20455;-83
2023/02/10 06:34:51;;;;;;;846.13;764.40;;;-0.80;99.90;;;;;;5084096;28;20627;-83
2023/02/10 06:37:18;;;;;;;841.50;759.83;;;-0.60;99.90;;;;;;5084478;28;20219;-84
2023/02/10 06:39:47;;;;;;;847.83;764.50;;;-0.70;99.90;;;;;;5084310;28;20243;-84
2023/02/10 06:42:14;;;;;;;866.57;784.47;;;-0.70;99.90;;;;;;5083485;28;20311;-84
2023/02/10 06:44:42;;;;;;;836.20;752.83;;;-0.70;99.90;;;;;;5083591;28;20466;-83
2023/02/10 06:47:11;;;;;;;844.78;760.78;;;-0.50;99.90;;;;;;5084115;28;20469;-84
2023/02/10 06:49:38;;;;;;;848.97;765.03;;;-0.40;99.90;;;;;;5084686;28;20227;-83
2023/02/10 06:52:05;;;;;;;827.95;742.38;;;-0.40;99.90;;;;;;5083924;28;20219;-83
2023/02/10 06:54:33;;;;;;;821.67;737.10;;;-0.40;99.90;;;;;;5084357;28;20207;-84
2023/02/10 06:57:00;;;;;;;821.10;735.40;;;-0.40;99.90;;;;;;5084191;28;20501;-83
2023/02/10 06:59:27;;;;;;;826.55;741.75;;;-0.30;99.90;;;;;;5083277;28;20474;-84
2023/02/10 07:02:00;;;;;;;818.07;732.60;;;-0.20;99.90;;;;;;5083388;28;20216;-83
2023/02/10 07:04:28;;;;;;;824.20;739.43;;;0.00;99.90;;;;;;5082917;28;20473;-83
2023/02/10 07:06:55;;;;;;;836.80;751.45;;;-0.10;99.90;;;;;;5082600;28;20458;-84
2023/02/10 07:09:22;;;;;;;828.67;741.43;;;0.00;99.90;;;;;;5083515;28;20747;-84
2023/02/10 07:11:49;;;;;;;830.77;744.73;;;0.00;99.90;;;;;;5082816;28;20948;-84
2023/02/10 07:14:17;;;;;;;832.67;746.10;;;0.00;99.90;;;;;;5083234;28;20450;-84
2023/02/10 07:16:44;;;;;;;828.63;742.37;;;0.10;99.90;;;;;;5083415;28;20545;-83
2023/02/10 07:19:11;;;;;;;817.97;734.47;;;0.10;99.90;;;;;;5083271;28;20470;-85
2023/02/10 07:21:39;;;;;;;837.63;752.63;;;0.20;99.90;;;;;;5083558;28;20941;-84
2023/02/10 07:24:06;;;;;;;830.93;744.93;;;0.30;99.90;;;;;;5082861;28;20474;-85
2023/02/10 07:26:33;;;;;;;847.60;761.60;;;0.40;99.90;;;;;;5082830;28;20980;-83
2023/02/10 07:29:02;;;;;;;844.33;757.43;;;0.50;99.90;;;;;;5082723;28;20474;-84
2023/02/10 07:31:30;;;;;;;825.77;741.40;;;0.50;99.90;;;;;;5082973;28;20895;-84
2023/02/10 07:33:56;;;;;;;831.38;746.05;;;0.50;99.90;;;;;;5082829;28;20465;-83
2023/02/10 07:36:23;;;;;;;826.53;741.77;;;0.60;99.90;;;;;;5082353;28;20232;-83
2023/02/10 07:38:52;;;;;;;828.37;744.90;;;0.70;99.90;;;;;;5081658;28;20502;-84
2023/02/10 07:41:22;;;;;;;813.40;730.90;;;0.70;99.90;;;;;;5083368;28;20483;-84
2023/02/10 07:43:49;;;;;;;825.57;743.70;;;0.70;99.90;;;;;;5082446;28;20478;-82
2023/02/10 07:46:17;;;;;;;828.40;743.80;;;0.80;99.90;;;;;;5081896;28;20453;-84
2023/02/10 07:48:44;;;;;;;823.43;737.23;;;0.70;99.90;;;;;;5082875;28;20467;-84
2023/02/10 07:51:13;;;;;;;839.97;754.17;;;0.70;99.90;;;;;;5081832;28;20446;-84
2023/02/10 07:53:42;;;;;;;831.93;744.90;;;0.60;99.90;;;;;;5081722;28;20496;-84
2023/02/10 07:56:11;;;;;;;826.70;743.70;;;0.60;99.90;;;;;;5081678;28;20504;-84
2023/02/10 07:58:38;;;;;;;841.88;758.45;;;0.90;99.90;;;;;;5081620;28;20474;-83
2023/02/10 08:01:07;;;;;;;835.65;750.40;;;0.80;99.90;;;;;;5081602;28;20291;-84
2023/02/10 08:03:35;;;;;;;828.07;743.47;;;0.80;99.90;;;;;;5071311;28;20240;-83
2023/02/10 08:06:02;;;;;;;820.53;739.37;;;0.90;99.90;;;;;;5061114;28;20451;-83
2023/02/10 08:08:29;;;;;;;825.17;742.10;;;1.10;99.90;;;;;;5061084;28;20475;-83
2023/02/10 08:10:56;;;;;;;815.10;733.07;;;1.10;99.90;;;;;;5061235;28;20966;-83
2023/02/10 08:13:27;;;;;;;830.27;746.03;;;1.20;99.90;;;;;;5060770;28;20509;-83
2023/02/10 08:15:56;;;;;;;821.07;738.77;;;1.30;99.90;;;;;;5061300;28;20534;-83
2023/02/10 08:18:24;;;;;;;821.47;739.00;;;1.40;99.90;;;;;;5060509;28;20480;-84
2023/02/10 08:20:53;;;;;;;820.50;738.50;;;1.50;99.90;;;;;;5060893;28;20490;-83
2023/02/10 08:23:23;;;;;;;814.60;733.40;;;1.50;99.90;;;;;;5060259;28;20471;-86
2023/02/10 08:25:50;;;;;;;817.03;734.13;;;1.60;99.90;;;;;;5060994;28;20459;-84
2023/02/10 08:28:17;;;;;;;812.67;732.20;;;1.80;99.90;;;;;;5060466;28;20507;-83
2023/02/10 08:30:46;;;;;;;821.13;741.70;;;2.00;99.90;;;;;;5060254;28;20455;-84
2023/02/10 08:33:13;;;;;;;811.33;732.00;;;2.00;99.90;;;;;;5060405;28;20447;-84
2023/02/10 08:35:40;;;;;;;813.00;736.80;;;2.10;99.90;;;;;;5059770;28;20463;-84
2023/02/10 08:38:08;;;;;;;802.57;727.00;;;2.30;99.90;;;;;;5059809;28;20851;-84
2023/02/10 08:40:36;;;;;;;816.07;741.37;;;2.30;99.90;;;;;;5060383;28;20508;-83
2023/02/10 08:43:03;;;;;;;799.57;727.00;;;2.60;99.90;;;;;;5060055;28;20570;-84
2023/02/10 08:45:30;;;;;;;785.40;714.13;;;2.60;99.90;;;;;;5059508;28;20477;-84
2023/02/10 08:47:59;;;;;;;788.40;719.23;;;2.70;99.90;;;;;;5059797;28;20452;-83
2023/02/10 08:50:25;;;;;;;778.77;712.37;;;2.80;99.90;;;;;;5060212;28;20466;-84
2023/02/10 08:52:52;;;;;;;775.17;712.33;;;3.00;99.90;;;;;;5060128;28;20448;-83
2023/02/10 08:55:19;;;;;;;773.83;712.57;;;3.10;99.90;;;;;;5060207;28;20447;-84
2023/02/10 08:57:46;;;;;;;759.97;701.27;;;3.20;99.90;;;;;;5058609;28;20479;-83
2023/02/10 09:00:13;;;;;;;750.40;694.87;;;3.50;99.90;;;;;;5060559;28;20458;-83
2023/02/10 09:02:40;;;;;;;733.00;682.20;;;3.70;99.90;;;;;;5059834;28;20854;-84
2023/02/10 09:05:08;;;;;;;664.27;621.03;;;3.90;99.90;;;;;;5059504;28;20455;-82
2023/02/10 09:07:35;;;;;;;588.40;551.77;;;4.30;99.90;;;;;;5060412;28;20458;-84
2023/02/10 09:10:02;;;;;;;485.20;457.67;;;4.40;99.90;;;;;;5060416;28;20989;-84
2023/02/10 09:12:41;;;;;;;470.17;442.63;;;4.50;99.90;;;;;;5059763;28;20473;-87
2023/02/10 09:15:21;;;;;;;377.80;358.10;;;4.70;99.90;;;;;;5060720;28;20547;-85
2023/02/10 09:17:48;;;;;;;199.70;186.93;;;5.00;99.90;;;;;;5060677;28;20452;-84
2023/02/10 09:20:16;;;;;;;73.43;65.40;;;5.10;99.90;;;;;;5059208;28;20458;-84
2023/02/10 09:22:43;;;;;;;55.10;34.60;;;5.20;99.90;;;;;;5059296;28;20973;-81
2023/02/10 09:25:10;;;;;;;59.90;32.30;;;5.20;99.90;;;;;;5059018;28;21060;-83
2023/02/10 09:27:37;;;;;;;53.00;28.07;;;5.40;99.90;;;;;;5059320;28;20524;-82
2023/02/10 09:30:05;;;;;;;57.70;29.37;;;5.60;99.90;;;;;;5059614;28;20482;-82
2023/02/10 09:32:31;;;;;;;57.53;31.90;;;5.60;99.90;;;;;;5059580;28;20833;-82
2023/02/10 09:34:58;;;;;;;67.37;28.63;;;5.70;99.90;;;;;;5059133;28;20455;-83
2023/02/10 09:37:26;;;;;;;53.53;25.63;;;5.70;99.90;;;;;;5058773;28;20487;-83
2023/02/10 09:39:53;;;;;;;54.47;27.20;;;5.50;99.90;;;;;;5058729;28;20478;-83
2023/02/10 09:42:28;;;;;;;55.53;27.50;;;5.40;99.90;;;;;;5059016;28;20455;-83
2023/02/10 09:45:02;;;;;;;61.53;28.30;;;5.20;99.90;;;;;;5059391;28;20512;-82
2023/02/10 09:47:41;;;;;;;57.80;30.20;;;5.20;99.90;;;;;;5059406;28;20456;-82
2023/02/10 09:50:44;;;;;;;66.23;29.43;;;5.20;99.90;;;;;;5058796;28;20454;-83
2023/02/10 09:53:20;;;;;;;60.13;27.60;;;5.20;99.90;;;;;;5058659;28;20458;-85
2023/02/10 09:55:49;;;;;;;51.73;24.47;;;5.50;99.90;;;;;;5059286;28;20467;-83
2023/02/10 09:58:23;;;;;;;57.77;27.40;;;5.70;99.90;;;;;;5059116;28;20491;-84
2023/02/10 10:00:56;;;;;;;51.70;26.23;;;5.90;99.90;;;;;;5058818;28;20449;-83
2023/02/10 10:03:29;;;;;;;55.63;26.70;;;6.20;99.90;;;;;;5059150;28;20494;-83
2023/02/10 10:06:09;;;;;;;47.23;25.93;;;6.10;99.90;;;;;;5059143;28;20479;-85
2023/02/10 10:08:48;;;;;;;59.10;26.17;;;6.30;99.90;;;;;;5058573;28;20482;-85
2023/02/10 10:11:24;;;;;;;53.97;27.93;;;6.40;99.90;;;;;;5059006;28;20450;-84
2023/02/10 10:13:52;;;;;;;53.87;25.90;;;6.80;99.90;;;;;;5059128;28;20961;-83
2023/02/10 10:16:32;;;;;;;55.60;23.70;;;7.10;99.90;;;;;;5058894;28;20459;-84
2023/02/10 10:19:12;;;;;;;52.50;26.27;;;7.30;99.90;;;;;;5058624;28;20490;-85
2023/02/10 10:21:48;;;;;;;51.93;25.97;;;7.70;99.90;;;;;;5058951;28;20447;-85
2023/02/10 10:24:32;;;;;;;53.63;27.13;;;8.20;99.90;;;;;;5058970;28;20475;-84
2023/02/10 10:30:08;;;;;;;47.47;24.20;;;9.20;99.90;;;;;;5060742;28;20467;-83
2023/02/10 10:32:44;;;;;;;58.67;26.00;;;9.60;99.90;;;;;;5065717;28;20518;-83
2023/02/10 10:35:17;;;;;;;59.37;25.27;;;9.80;99.20;;;;;;5078923;28;20540;-84
2023/02/10 10:37:45;;;;;;;49.43;25.07;;;10.10;98.20;;;;;;5079577;28;20929;-84
2023/02/10 10:40:20;;;;;;;50.10;27.03;;;10.60;97.80;;;;;;5079655;28;20465;-84
2023/02/10 10:42:50;;;;;;;53.03;24.80;;;10.80;94.30;;;;;;5080112;28;20452;-83
2023/02/10 10:45:49;;;;;;;47.80;24.20;;;10.80;94.70;;;;;;5079482;28;20543;-84
2023/02/10 10:48:25;;;;;;;45.27;25.70;;;11.20;94.20;;;;;;5077539;28;20504;-86
2023/02/10 10:51:07;;;;;;;49.57;26.33;;;11.20;92.50;;;;;;5078397;28;20510;-85
2023/02/10 10:53:40;;;;;;;47.30;24.30;;;11.00;92.20;;;;;;5077816;28;20451;-86
2023/02/10 10:56:19;;;;;;;51.67;27.73;;;11.10;91.40;;;;;;5080534;28;20459;-84
2023/02/10 10:58:48;;;;;;;47.33;26.60;;;11.70;91.60;;;;;;5081485;28;21044;-84
2023/02/10 11:01:16;;;;;;;49.70;24.70;;;11.60;90.10;;;;;;5080902;28;20454;-84
2023/02/10 11:03:44;;;;;;;51.90;27.73;;;12.00;90.60;;;;;;5079982;28;20553;-84
2023/02/10 11:06:14;;;;;;;45.83;24.50;;;12.20;86.70;;;;;;5080277;28;20487;-83
2023/02/10 11:08:47;;;;;;;46.23;27.67;;;12.30;85.00;;;;;;5079238;28;20535;-84
2023/02/10 11:11:17;;;;;;;43.97;23.87;;;12.50;85.50;;;;;;5080919;28;20443;-85
2023/02/10 11:13:51;;;;;;;44.50;25.83;;;12.90;83.90;;;;;;5082231;28;20453;-85
2023/02/10 11:16:22;;;;;;;46.43;26.00;;;12.80;81.60;;;;;;5081884;28;20443;-85
2023/02/10 11:18:56;;;;;;;50.37;25.40;;;12.90;81.80;;;;;;5082091;28;20491;-85
2023/02/10 11:21:36;;;;;;;39.70;22.97;;;12.50;79.30;;;;;;5082680;28;20454;-86
2023/02/10 11:28:41;;;;;;;;;;;;;;;;;;;;;
2023/02/10 11:31:42;;;;;;;49.30;28.30;;;12.40;79.10;;;;;;5062841;28;20453;-82
2023/02/10 11:34:24;;;;;;;46.77;24.80;;;12.30;80.60;;;;;;5083884;28;20460;-84
2023/02/10 11:37:25;;;;;;;47.10;26.87;;;12.70;79.50;;;;;;5083353;28;20447;-84
2023/02/10 11:40:01;;;;;;;43.37;24.77;;;12.20;78.90;;;;;;5083259;28;20489;-84
2023/02/10 11:42:34;;;;;;;42.83;25.07;;;12.20;80.10;;;;;;5083623;28;21029;-85
2023/02/10 11:45:27;;;;;;;41.07;23.60;;;12.20;78.90;;;;;;5082958;28;20466;-84
2023/02/10 11:48:22;;;;;;;49.43;25.23;;;12.10;78.90;;;;;;5084532;28;20474;-85
2023/02/10 11:51:06;;;;;;;46.03;25.30;;;12.50;79.80;;;;;;5082564;28;20476;-84
2023/02/10 11:53:39;;;;;;;50.00;24.90;;;12.00;78.80;;;;;;5082242;28;20460;-83
2023/02/10 11:58:58;;;;;;;47.40;26.27;;;11.70;79.40;;;;;;5083833;28;20462;-84
2023/02/10 11:59:27;;;;;;;46.97;27.33;;;11.90;81.70;;;;;;5081563;28;20472;-84
2023/02/10 12:02:12;;;;;;;44.63;25.30;;;11.50;80.70;;;;;;5083097;28;20883;-84
2023/02/10 12:05:13;;;;;;;41.90;22.97;;;11.50;78.60;;;;;;5082457;28;20476;-85
2023/02/10 12:08:07;;;;;;;46.20;23.93;;;11.10;80.60;;;;;;5083475;28;20576;-84
2023/02/10 12:10:41;;;;;;;38.97;22.80;;;11.50;82.90;;;;;;5082217;28;20458;-84
2023/02/10 12:13:29;;;;;;;41.80;24.53;;;11.80;80.40;;;;;;5081452;28;20455;-84
2023/02/10 12:16:12;;;;;;;40.17;23.33;;;11.80;78.60;;;;;;5083215;28;20451;-84
2023/02/10 12:18:56;;;;;;;44.43;25.57;;;12.20;78.90;;;;;;5082886;28;20479;-84
2023/02/10 12:22:07;;;;;;;44.00;24.13;;;12.30;78.30;;;;;;5081278;28;20484;-84
2023/02/10 12:25:05;;;;;;;44.63;23.17;;;12.70;77.00;;;;;;5035374;28;20500;-85
2023/02/10 12:27:46;;;;;;;46.40;25.63;;;12.80;74.80;;;;;;5081988;28;20478;-85
2023/02/10 12:30:36;;;;;;;40.67;24.53;;;12.50;74.80;;;;;;5082531;28;20548;-85
2023/02/10 12:33:32;;;;;;;49.73;25.47;;;13.10;71.90;;;;;;5082516;28;20462;-85
2023/02/10 12:36:12;;;;;;;40.67;23.10;;;13.30;72.00;;;;;;5082637;28;20428;-85
2023/02/10 12:38:56;;;;;;;49.13;24.53;;;13.60;71.10;;;;;;5081924;28;20535;-85
2023/02/10 12:41:44;;;;;;;51.10;25.70;;;13.70;68.50;;;;;;5082701;28;20450;-85
2023/02/10 12:44:28;;;;;;;40.07;23.43;;;13.40;67.60;;;;;;5081770;28;20521;-85
2023/02/10 12:47:10;;;;;;;40.60;22.93;;;12.90;68.20;;;;;;5082195;28;20456;-84
2023/02/10 12:49:53;;;;;;;46.53;23.67;;;12.60;69.50;;;;;;5082873;28;20533;-84
2023/02/10 12:52:27;;;;;;;39.40;23.47;;;12.60;71.10;;;;;;5082499;28;20460;-84